La Luz, New Mexico
Current Conditions -  °F | °C
As of 5:35 AM on Monday 26 Jan 2015 (Local Time) from KALM Reporting Station
Clear Clear  
Wind Chill: 25°   Ceiling: Unl
Heat Index: 30°   Visibility: 10mi
Dew Point: 25°   Wind: 5mph
Humidity: 80%   Direction: 320°NW
Pressure: 30.33"   Gusts: NA
Location:  32.98°N, 105.94°W
Report Text: KALM 261235Z AUTO 32004KT 10SM CLR M01/M04 A3033 RMK AO2
Loading
Personal Weather Stations






























Interactive Weather Map New forecast layout! Learn more

10-Day Weather Forecast

Advertisements
Track Severe Weather on mobile